Time;durP1;ratioP1;P1;durP2;ratioP2;P2;SDS_P1;SDS_P2;PMS_P1;PMS_P2;Temp;Humidity;BMP_temperature;BMP_pressure;BME280_temperature;BME280_humidity;BME280_pressure;Samples;Min_cycle;Max_cycle;Signal;HPM_P1;HPM_P2
2021/12/11 00:09:35;;;;;;;3.72;2.92;;;;;;;14.25;47.42;100032.63;21121824;28;20051;-71
2021/12/11 00:19:39;;;;;;;5.30;3.70;;;;;;;14.52;47.18;100106.16;21156139;28;20040;-71
2021/12/11 00:29:41;;;;;;;3.42;2.90;;;;;;;14.53;47.18;100157.91;21156072;28;20050;-73
2021/12/11 00:39:50;;;;;;;3.72;2.63;;;;;;;14.52;47.19;100183.84;21158714;28;20055;-72
2021/12/11 00:50:01;;;;;;;3.25;2.92;;;;;;;14.47;47.55;100220.88;21172092;28;20044;-71
2021/12/11 01:00:10;;;;;;;3.00;2.70;;;;;;;14.34;47.50;100218.38;21171059;28;20126;-71
2021/12/11 01:10:21;;;;;;;3.85;3.42;;;;;;;14.34;47.42;100234.47;21170116;28;20062;-71
2021/12/11 01:21:13;;;;;;;3.85;2.78;;;;;;;13.74;47.21;100168.03;21169200;28;20061;-71
2021/12/11 01:31:17;;;;;;;3.60;2.72;;;;;;;14.30;47.14;100287.44;21133847;28;20047;-72
2021/12/11 01:41:21;;;;;;;3.38;2.72;;;;;;;14.13;46.78;100274.59;21150214;28;20040;-71
2021/12/11 01:51:31;;;;;;;2.70;2.50;;;;;;;14.18;46.52;100291.97;21131347;28;20054;-71
2021/12/11 02:01:36;;;;;;;3.83;3.30;;;;;;;14.32;46.34;100328.31;21166120;28;20070;-71
2021/12/11 02:11:38;;;;;;;2.97;2.30;;;;;;;14.29;46.24;100366.06;21165433;28;20066;-71
2021/12/11 02:21:48;;;;;;;4.38;3.20;;;;;;;14.47;46.19;100386.94;21146361;28;20112;-72
2021/12/11 02:31:52;;;;;;;3.25;2.80;;;;;;;14.47;46.04;100384.25;21163782;28;20055;-71
2021/12/11 02:42:18;;;;;;;3.55;2.80;;;;;;;14.47;46.40;100389.63;21162924;28;20044;-71
2021/12/11 02:52:29;;;;;;;3.20;2.72;;;;;;;14.48;46.10;100402.91;21139125;28;20048;-71
2021/12/11 03:02:31;;;;;;;4.05;3.05;;;;;;;13.27;45.93;100240.44;21159001;28;20554;-71
2021/12/11 03:12:33;;;;;;;3.53;2.70;;;;;;;14.50;45.70;100403.63;21161710;28;20108;-71
2021/12/11 03:22:35;;;;;;;3.15;2.70;;;;;;;14.45;45.41;100421.03;21159914;28;20104;-71
2021/12/11 03:32:37;;;;;;;3.88;3.00;;;;;;;14.32;45.59;100419.38;21158778;28;20058;-72
2021/12/11 03:42:41;;;;;;;4.05;2.95;;;;;;;14.31;45.42;100436.41;21158049;28;20545;-71
2021/12/11 03:52:45;;;;;;;3.38;2.90;;;;;;;14.48;45.44;100477.03;21139568;28;20051;-71
2021/12/11 04:02:48;;;;;;;2.88;2.50;;;;;;;13.84;45.11;100375.00;21156726;28;20703;-71
2021/12/11 04:12:50;;;;;;;3.92;2.67;;;;;;;14.47;44.94;100499.44;21138181;28;20048;-71
2021/12/11 04:22:53;;;;;;;4.80;2.88;;;;;;;14.36;45.25;100489.56;21155951;28;20098;-71
2021/12/11 04:32:56;;;;;;;5.75;3.30;;;;;;;14.51;45.18;100530.34;21139006;28;20489;-70
2021/12/11 04:43:04;;;;;;;3.72;3.08;;;;;;;14.17;45.48;100456.25;21155395;28;20051;-70
2021/12/11 04:53:21;;;;;;;4.32;3.10;;;;;;;14.77;45.46;100508.69;21155370;28;20051;-69
2021/12/11 05:04:19;;;;;;;3.60;3.10;;;;;;;15.10;45.47;100514.94;21155504;28;20100;-70
2021/12/11 05:13:48;;;;;;;5.93;3.33;;;;;;;15.67;44.76;100560.28;21044783;28;20106;-71
2021/12/11 05:23:51;;;;;;;4.03;3.00;;;;;;;14.84;44.19;100402.69;21069334;28;20048;-70
2021/12/11 05:33:53;;;;;;;4.38;3.17;;;;;;;16.09;44.07;100642.69;21084271;28;20048;-70
2021/12/11 05:43:55;;;;;;;3.40;2.85;;;;;;;16.07;44.04;100685.78;21083255;28;20550;-70
2021/12/11 05:53:59;;;;;;;4.00;3.47;;;;;;;16.08;44.20;100666.00;21082648;28;20048;-71
2021/12/11 06:04:08;;;;;;;4.40;2.90;;;;;;;15.88;44.04;100630.09;21081686;28;20064;-71
2021/12/11 06:14:09;;;;;;;4.70;3.10;;;;;;;15.76;43.95;100588.19;21064317;28;20052;-70
2021/12/11 06:24:11;;;;;;;4.20;3.15;;;;;;;16.37;44.13;100696.75;21080157;28;20048;-72
2021/12/11 06:34:14;;;;;;;4.78;3.05;;;;;;;16.44;44.13;100718.56;21079205;28;20048;-71
2021/12/11 06:44:16;;;;;;;4.90;3.13;;;;;;;16.48;44.14;100738.81;21078108;28;20051;-72
2021/12/11 06:54:18;;;;;;;3.60;3.10;;;;;;;16.53;44.14;100750.88;21059783;28;20048;-72
2021/12/11 07:04:21;;;;;;;4.28;3.10;;;;;;;16.59;44.27;100781.75;21077679;28;20055;-75
2021/12/11 07:14:25;;;;;;;4.25;3.58;;;;;;;16.57;44.08;100767.59;21058240;28;20044;-71
2021/12/11 07:24:32;;;;;;;3.88;3.22;;;;;;;15.96;43.89;100701.97;21058092;28;20463;-74
2021/12/11 07:34:34;;;;;;;5.53;3.40;;;;;;;16.20;43.87;100744.69;21074394;28;20040;-72
2021/12/11 07:44:36;;;;;;;4.40;3.40;;;;;;;16.68;43.70;100832.03;21073921;28;20036;-74
2021/12/11 07:54:38;;;;;;;3.67;2.85;;;;;;;16.66;43.56;100855.50;21054764;28;20496;-71
2021/12/11 08:04:40;;;;;;;4.53;3.10;;;;;;;15.45;43.96;100690.84;21072688;28;20056;-71
2021/12/11 08:14:42;;;;;;;6.20;3.40;;;;;;;16.08;44.06;100811.03;21072386;28;20051;-72
2021/12/11 08:24:44;;;;;;;3.95;3.50;;;;;;;15.49;43.58;100721.84;21071834;28;20405;-71
2021/12/11 08:34:47;;;;;;;5.45;3.90;;;;;;;15.60;43.72;100784.50;21071530;28;20056;-71
2021/12/11 08:44:52;;;;;;;4.40;3.17;;;;;;;15.77;43.62;100840.34;21052984;28;20052;-71
2021/12/11 08:54:55;;;;;;;4.50;3.72;;;;;;;16.46;43.18;100943.16;21036485;28;20047;-72
2021/12/11 09:05:07;;;;;;;4.28;3.78;;;;;;;15.97;43.29;100888.06;21080954;28;20056;-71
2021/12/11 09:15:25;;;;;;;5.10;4.03;;;;;;;16.50;43.26;101019.03;21085583;28;20052;-71
2021/12/11 09:25:41;;;;;;;5.68;4.10;;;;;;;16.37;43.41;100998.53;21085015;28;20051;-72
2021/12/11 09:35:54;;;;;;;;;;;;;;;16.48;43.28;101031.72;21084304;28;20102;-70
2021/12/11 09:45:56;;;;;;;4.80;3.88;;;;;;;16.49;43.32;101066.53;21083290;28;19920;-71
2021/12/11 09:55:59;;;;;;;4.65;4.20;;;;;;;16.51;43.56;101063.72;21065711;28;20056;-71
2021/12/11 10:06:14;;;;;;;5.30;4.18;;;;;;;15.76;43.88;100916.47;21081804;28;20086;-71
2021/12/11 10:16:19;;;;;;;5.73;4.47;;;;;;;16.38;43.91;101021.72;21062357;28;20066;-72
2021/12/11 10:26:25;;;;;;;7.67;5.13;;;;;;;16.27;43.99;101023.56;21079867;28;20089;-71
2021/12/11 10:36:31;;;;;;;6.55;5.72;;;;;;;16.55;44.21;101081.31;21061349;28;20046;-72
2021/12/11 10:46:47;;;;;;;7.25;5.78;;;;;;;15.93;44.15;100949.22;21078634;28;20098;-71
2021/12/11 10:56:50;;;;;;;8.40;6.03;;;;;;;16.66;44.54;101077.78;21077918;28;20412;-72
2021/12/11 11:06:52;;;;;;;7.85;6.55;;;;;;;16.36;44.69;101058.63;21076987;28;20048;-72
2021/12/11 11:16:57;;;;;;;8.90;7.53;;;;;;;16.61;44.64;101109.53;21058137;28;20101;-71
2021/12/11 11:26:59;;;;;;;8.52;7.20;;;;;;;16.62;45.18;101106.72;21074616;28;20470;-71
2021/12/11 11:37:04;;;;;;;9.50;6.72;;;;;;;16.17;45.51;101044.91;21074914;28;20048;-71
2021/12/11 11:47:06;;;;;;;11.87;8.60;;;;;;;16.68;45.66;101130.41;21056232;28;20047;-71
2021/12/11 11:57:12;;;;;;;8.70;6.55;;;;;;;15.87;46.04;101025.69;21055380;28;20202;-70
2021/12/11 12:07:14;;;;;;;6.72;5.68;;;;;;;16.51;46.28;101082.53;21072933;28;20060;-71
2021/12/11 12:17:19;;;;;;;9.43;7.22;;;;;;;16.94;46.72;101140.91;21054646;28;20459;-71
2021/12/11 12:27:25;;;;;;;11.30;6.57;;;;;;;17.00;46.48;101130.66;21054329;28;20036;-71
2021/12/11 12:37:27;;;;;;;7.68;6.43;;;;;;;17.13;46.20;101173.56;21077917;28;20071;-71
2021/12/11 12:47:35;;;;;;;8.45;6.50;;;;;;;18.96;43.11;101204.88;21087879;28;20051;-71
2021/12/11 12:57:40;;;;;;;9.20;7.38;;;;;;;18.17;42.62;101086.88;21087181;28;20079;-71
2021/12/11 13:07:44;;;;;;;7.40;4.78;;;;;;;17.60;43.79;101097.94;21086162;28;20055;-71
2021/12/11 13:17:49;;;;;;;6.53;4.95;;;;;;;17.17;44.44;101108.63;21050899;28;20043;-71
2021/12/11 13:27:54;;;;;;;5.63;4.87;;;;;;;16.94;44.86;101124.78;21066754;28;20500;-71
2021/12/11 13:37:56;;;;;;;6.65;5.00;;;;;;;16.77;45.33;101133.34;21066655;28;20059;-71
2021/12/11 13:47:59;;;;;;;8.15;5.20;;;;;;;16.50;45.53;101123.84;21082367;28;20052;-70
2021/12/11 13:58:05;;;;;;;9.65;6.63;;;;;;;16.34;45.74;101148.38;21064617;28;20044;-71
2021/12/11 14:08:09;;;;;;;12.05;7.78;;;;;;;16.70;46.25;101234.28;21063676;28;20105;-71
2021/12/11 14:18:16;;;;;;;12.17;8.70;;;;;;;16.52;46.50;101253.56;21081559;28;20051;-73
2021/12/11 14:28:21;;;;;;;11.48;9.82;;;;;;;16.32;47.32;101253.25;21080052;28;20051;-73
2021/12/11 14:38:23;;;;;;;12.30;8.50;;;;;;;16.24;48.06;101271.78;21079523;28;20051;-71
2021/12/11 14:48:26;;;;;;;11.45;7.72;;;;;;;16.42;48.29;101290.19;21060631;28;20050;-71
2021/12/11 14:58:30;;;;;;;9.75;7.47;;;;;;;16.58;47.72;101312.22;21059330;28;20117;-71
2021/12/11 15:08:32;;;;;;;9.65;6.80;;;;;;;16.16;47.42;101228.53;21058558;28;20051;-72
2021/12/11 15:18:34;;;;;;;7.75;6.05;;;;;;;16.46;47.36;101279.06;21043081;28;20056;-71
2021/12/11 15:28:38;;;;;;;6.68;5.07;;;;;;;16.73;47.28;101341.59;21057310;28;20044;-72
2021/12/11 15:38:41;;;;;;;7.25;4.78;;;;;;;16.21;47.07;101246.03;21074859;28;20047;-72
2021/12/11 15:48:46;;;;;;;5.55;3.97;;;;;;;16.34;47.00;101261.22;21055903;28;20044;-71
2021/12/11 15:58:50;;;;;;;5.07;4.53;;;;;;;15.78;46.55;101179.44;21073324;28;20050;-71
2021/12/11 16:08:54;;;;;;;5.97;4.53;;;;;;;16.91;46.40;101382.34;21054370;28;20064;-71
2021/12/11 16:18:56;;;;;;;4.97;4.32;;;;;;;16.91;46.41;101383.22;21072296;28;20048;-72
2021/12/11 16:28:59;;;;;;;5.18;3.70;;;;;;;16.93;46.28;101383.06;21071501;28;20047;-72
2021/12/11 16:39:03;;;;;;;4.55;4.15;;;;;;;17.03;46.14;101439.75;21071614;28;20048;-72
2021/12/11 16:49:07;;;;;;;3.97;3.53;;;;;;;17.07;46.15;101433.16;21071312;28;20135;-72
2021/12/11 16:59:11;;;;;;;3.38;3.08;;;;;;;17.11;46.01;101464.22;21070735;28;20075;-72
2021/12/11 17:09:15;;;;;;;3.20;2.90;;;;;;;17.12;46.43;101474.00;21051934;28;20055;-72
2021/12/11 17:19:18;;;;;;;3.20;2.90;;;;;;;17.00;46.10;101451.59;21052396;28;20040;-72
2021/12/11 17:29:24;;;;;;;2.95;2.65;;;;;;;17.05;45.81;101475.47;21066521;28;20044;-72
2021/12/11 17:39:28;;;;;;;3.10;2.28;;;;;;;17.12;45.98;101487.47;21084320;28;20089;-72
2021/12/11 17:49:32;;;;;;;3.50;3.20;;;;;;;16.57;45.76;101392.97;21083266;28;20093;-72
2021/12/11 17:59:34;;;;;;;3.25;2.85;;;;;;;16.00;45.60;101307.59;21082572;28;20143;-72
2021/12/11 18:09:44;;;;;;;3.03;2.72;;;;;;;16.62;45.40;101420.38;21063961;28;20058;-72
2021/12/11 18:20:03;;;;;;;2.47;2.28;;;;;;;16.94;45.57;101485.19;21063718;28;20052;-72
2021/12/11 18:30:10;;;;;;;2.85;2.55;;;;;;;17.16;45.67;101523.06;21080113;28;20102;-73
2021/12/11 18:40:22;;;;;;;2.80;2.50;;;;;;;16.54;45.83;101420.94;21044189;28;20044;-72
2021/12/11 18:50:25;;;;;;;3.10;2.67;;;;;;;17.18;45.86;101550.72;21078466;28;20575;-72
2021/12/11 19:00:38;;;;;;;3.03;2.72;;;;;;;16.94;46.14;101482.47;21077610;28;20386;-73
2021/12/11 19:10:41;;;;;;;3.80;2.45;;;;;;;17.24;46.51;101529.59;21076688;28;20504;-72
2021/12/11 19:21:07;;;;;;;3.85;2.80;;;;;;;16.62;46.33;101448.09;21076041;28;20098;-71
2021/12/11 19:31:19;;;;;;;2.40;2.20;;;;;;;17.09;46.52;101526.22;21075312;28;20052;-72
2021/12/11 19:41:23;;;;;;;2.65;2.40;;;;;;;17.12;46.61;101537.75;21056385;28;20045;-71
2021/12/11 19:51:29;;;;;;;2.80;2.58;;;;;;;16.51;46.70;101445.38;21055372;28;20048;-72
2021/12/11 20:01:32;;;;;;;2.65;2.45;;;;;;;17.06;46.49;101542.63;21055722;28;20044;-72
2021/12/11 20:11:47;;;;;;;2.75;2.38;;;;;;;16.58;46.70;101465.44;21055784;28;20060;-73
2021/12/11 20:21:53;;;;;;;2.72;2.53;;;;;;;17.06;46.85;101537.22;21072206;28;20039;-72
2021/12/11 20:31:59;;;;;;;3.58;2.65;;;;;;;17.22;46.63;101589.88;21054317;28;20048;-72
2021/12/11 20:42:08;;;;;;;3.13;2.83;;;;;;;16.89;46.68;101526.81;21054038;28;20440;-73
2021/12/11 20:52:13;;;;;;;3.42;2.70;;;;;;;17.12;46.62;101581.63;21053880;28;20071;-72
2021/12/11 21:02:17;;;;;;;3.30;3.00;;;;;;;17.19;46.74;101580.19;21065243;28;20436;-72
2021/12/11 21:12:25;;;;;;;2.55;2.35;;;;;;;17.18;47.05;101556.09;21086313;28;20052;-72
2021/12/11 21:22:31;;;;;;;2.97;2.50;;;;;;;17.20;47.10;101567.59;21067612;28;20044;-77
2021/12/11 21:32:33;;;;;;;2.90;2.60;;;;;;;16.94;47.11;101547.03;21066870;28;20101;-74
2021/12/11 21:42:42;;;;;;;4.35;3.30;;;;;;;16.95;47.28;101567.56;21083942;28;20052;-74
2021/12/11 21:52:45;;;;;;;3.05;2.45;;;;;;;16.42;47.36;101505.19;21083597;28;20047;-74
2021/12/11 22:02:51;;;;;;;3.20;2.90;;;;;;;16.04;47.63;101478.28;21047625;28;20473;-74
2021/12/11 22:12:54;;;;;;;4.53;2.85;;;;;;;16.54;47.58;101590.28;21080990;28;20048;-73
2021/12/11 22:22:56;;;;;;;3.17;2.80;;;;;;;16.52;47.88;101597.59;21062915;28;20089;-74
2021/12/11 22:32:58;;;;;;;3.40;3.10;;;;;;;15.80;47.69;101513.06;21079966;28;20065;-74
2021/12/11 22:43:03;;;;;;;4.20;2.78;;;;;;;15.74;48.39;101549.25;21079063;28;20044;-74
2021/12/11 22:53:10;;;;;;;4.27;3.17;;;;;;;15.96;48.57;101593.44;21078481;28;20048;-74
2021/12/11 23:03:18;;;;;;;4.53;3.40;;;;;;;15.42;48.27;101505.84;21059647;28;20060;-74
2021/12/11 23:13:25;;;;;;;4.47;3.55;;;;;;;15.20;48.27;101502.81;21058683;28;20135;-74
2021/12/11 23:23:39;;;;;;;4.43;3.45;;;;;;;15.52;48.47;101576.69;21075848;28;20059;-74
2021/12/11 23:33:51;;;;;;;5.13;3.37;;;;;;;15.54;49.19;101590.88;21075281;28;20453;-74
2021/12/11 23:43:58;;;;;;;5.35;3.97;;;;;;;14.83;49.36;101451.66;21074500;28;20040;-74
2021/12/11 23:54:08;;;;;;;5.13;3.97;;;;;;;15.27;49.38;101529.22;21074069;28;20486;-73
